createdAt,value
2019-04-11T00:00:33.824Z,99.90
2019-04-11T00:03:15.374Z,99.90
2019-04-11T00:05:57.206Z,99.90
2019-04-11T00:08:38.848Z,99.90
2019-04-11T00:11:20.074Z,99.90
2019-04-11T00:14:03.169Z,99.90
2019-04-11T00:16:45.639Z,99.90
2019-04-11T00:19:27.458Z,99.90
2019-04-11T00:22:09.119Z,99.90
2019-04-11T00:24:51.285Z,99.90
2019-04-11T00:27:33.143Z,99.90
2019-04-11T00:30:15.589Z,99.90
2019-04-11T00:32:58.053Z,99.90
2019-04-11T00:35:40.031Z,99.90
2019-04-11T00:38:21.461Z,99.90
2019-04-11T00:41:03.758Z,99.90
2019-04-11T00:43:45.732Z,99.90
2019-04-11T00:46:28.681Z,99.90
2019-04-11T00:49:10.338Z,99.90
2019-04-11T00:51:51.989Z,99.90
2019-04-11T00:54:33.796Z,99.90
2019-04-11T00:57:15.375Z,99.90
2019-04-11T00:59:58.279Z,99.90
2019-04-11T01:02:42.191Z,99.90
2019-04-11T01:05:23.542Z,99.90
2019-04-11T01:08:05.273Z,99.90
2019-04-11T01:10:47.807Z,99.90
2019-04-11T01:13:40.521Z,99.90
2019-04-11T01:19:22.538Z,99.90
2019-04-11T01:22:04.058Z,99.90
2019-04-11T01:24:46.099Z,99.90
2019-04-11T01:27:27.790Z,99.90
2019-04-11T01:30:11.715Z,99.90
2019-04-11T01:32:54.795Z,99.90
2019-04-11T01:35:37.325Z,99.90
2019-04-11T01:38:21.373Z,99.90
2019-04-11T01:41:02.613Z,99.90
2019-04-11T01:43:55.235Z,99.90
2019-04-11T01:46:26.914Z,99.90
2019-04-11T01:52:16.362Z,99.90
2019-04-11T01:54:58.148Z,99.90
2019-04-11T01:57:40.262Z,99.90
2019-04-11T02:00:41.726Z,99.90
2019-04-11T02:03:43.439Z,99.90
2019-04-11T02:06:26.077Z,99.90
2019-04-11T02:09:08.085Z,99.90
2019-04-11T02:11:49.946Z,99.90
2019-04-11T02:14:31.673Z,99.90
2019-04-11T02:17:14.641Z,99.90
2019-04-11T02:19:56.551Z,99.90
2019-04-11T02:22:40.421Z,99.90
2019-04-11T02:25:42.781Z,99.90
2019-04-11T02:28:24.598Z,99.90
2019-04-11T02:31:07.736Z,99.90
2019-04-11T02:33:50.862Z,99.90
2019-04-11T02:36:34.197Z,99.90
2019-04-11T02:39:19.207Z,99.90
2019-04-11T02:42:01.395Z,99.90
2019-04-11T02:44:59.879Z,99.90
2019-04-11T02:47:30.817Z,99.90
2019-04-11T02:50:12.404Z,99.90
2019-04-11T02:52:52.058Z,99.90
2019-04-11T02:55:35.752Z,99.90
2019-04-11T02:58:18.677Z,99.90
2019-04-11T03:01:05.283Z,99.90
2019-04-11T03:03:47.444Z,99.90
2019-04-11T03:06:30.839Z,99.90
2019-04-11T03:09:13.299Z,99.90
2019-04-11T03:11:56.667Z,99.90
2019-04-11T03:14:54.348Z,99.90
2019-04-11T03:17:26.569Z,99.90
2019-04-11T03:20:18.363Z,99.90
2019-04-11T03:22:54.107Z,99.90
2019-04-11T03:25:30.656Z,99.90
2019-04-11T03:28:18.347Z,99.90
2019-04-11T03:31:30.378Z,99.90
2019-04-11T03:37:08.836Z,99.90
2019-04-11T03:39:27.763Z,99.90
2019-04-11T03:42:08.010Z,99.90
2019-04-11T03:44:39.477Z,99.90
2019-04-11T03:47:31.088Z,99.90
2019-04-11T03:50:06.080Z,99.90
2019-04-11T03:52:43.095Z,99.90
2019-04-11T03:55:25.985Z,99.90
2019-04-11T03:58:08.550Z,99.90
2019-04-11T04:00:53.652Z,99.90
2019-04-11T04:03:34.197Z,99.90
2019-04-11T04:06:16.972Z,99.90
2019-04-11T04:08:58.576Z,99.90
2019-04-11T04:11:45.460Z,99.90
2019-04-11T04:15:08.480Z,99.90
2019-04-11T04:18:10.149Z,99.90
2019-04-11T04:21:11.217Z,99.90
2019-04-11T04:23:54.615Z,99.90
2019-04-11T04:26:35.994Z,99.90
2019-04-11T04:29:18.037Z,99.90
2019-04-11T04:32:00.045Z,99.90
2019-04-11T04:34:42.210Z,99.90
2019-04-11T04:37:26.691Z,99.90
2019-04-11T04:40:25.461Z,99.90
2019-04-11T04:42:55.451Z,99.90
2019-04-11T04:45:55.163Z,99.90
2019-04-11T04:48:22.335Z,99.90
2019-04-11T04:51:05.827Z,99.90
2019-04-11T04:53:45.172Z,99.90
2019-04-11T04:56:31.590Z,99.90
2019-04-11T04:59:12.382Z,99.90
2019-04-11T05:01:56.133Z,99.90
2019-04-11T05:04:38.416Z,99.90
2019-04-11T05:07:20.402Z,99.90
2019-04-11T05:10:03.276Z,99.90
2019-04-11T05:12:46.059Z,99.90
2019-04-11T05:15:28.184Z,99.90
2019-04-11T05:18:11.481Z,99.90
2019-04-11T05:20:52.883Z,99.90
2019-04-11T05:23:35.080Z,99.90
2019-04-11T05:26:17.300Z,99.90
2019-04-11T05:28:58.876Z,99.90
2019-04-11T05:31:40.794Z,99.90
2019-04-11T05:34:22.273Z,99.90
2019-04-11T05:37:04.130Z,99.90
2019-04-11T05:39:46.042Z,99.90
2019-04-11T05:42:27.721Z,99.90
2019-04-11T05:45:15.896Z,99.90
2019-04-11T05:47:55.157Z,99.90
2019-04-11T05:50:38.225Z,99.90
2019-04-11T05:53:21.114Z,99.90
2019-04-11T05:56:03.991Z,99.90
2019-04-11T05:58:47.500Z,99.90
2019-04-11T06:01:48.815Z,99.90
2019-04-11T06:04:52.867Z,99.90
2019-04-11T06:07:43.601Z,99.90
2019-04-11T06:14:05.178Z,99.90
2019-04-11T06:16:55.750Z,99.90
2019-04-11T06:19:37.960Z,99.90
2019-04-11T06:22:19.887Z,99.90
2019-04-11T06:25:06.672Z,99.90
2019-04-11T06:28:10.182Z,99.90
2019-04-11T06:31:11.004Z,99.90
2019-04-11T06:33:57.071Z,99.90
2019-04-11T06:36:41.205Z,99.90
2019-04-11T06:39:25.639Z,99.90
2019-04-11T06:45:55.037Z,99.90
2019-04-11T06:48:42.162Z,99.90
2019-04-11T06:51:28.150Z,99.90
2019-04-11T06:54:16.925Z,99.90
2019-04-11T06:57:23.658Z,99.90
2019-04-11T07:00:07.297Z,99.90
2019-04-11T07:02:50.814Z,99.90
2019-04-11T07:05:33.145Z,99.90
2019-04-11T07:14:31.231Z,99.90
2019-04-11T07:17:32.143Z,99.90
2019-04-11T07:20:33.571Z,99.90
2019-04-11T07:23:34.144Z,99.90
2019-04-11T07:26:35.176Z,99.90
2019-04-11T07:29:35.893Z,99.90
2019-04-11T07:32:17.945Z,99.90
2019-04-11T07:35:19.320Z,99.50
2019-04-11T07:38:01.190Z,98.60
2019-04-11T07:40:44.804Z,99.00
2019-04-11T07:43:24.931Z,98.20
2019-04-11T07:46:32.968Z,98.70
2019-04-11T07:49:15.909Z,98.80
2019-04-11T07:51:58.791Z,98.10
2019-04-11T07:54:41.033Z,98.10
2019-04-11T08:00:37.910Z,97.40
2019-04-11T08:03:28.311Z,96.60
2019-04-11T08:06:29.006Z,96.20
2019-04-11T08:09:29.754Z,95.70
2019-04-11T08:12:12.890Z,95.40
2019-04-11T08:15:15.404Z,95.90
2019-04-11T08:17:58.497Z,94.80
2019-04-11T08:23:49.291Z,90.80
2019-04-11T08:26:50.522Z,88.00
2019-04-11T08:29:32.407Z,87.40
2019-04-11T08:32:33.600Z,87.10
2019-04-11T08:35:35.013Z,86.60
2019-04-11T08:38:36.360Z,87.70
2019-04-11T08:41:37.971Z,87.70
2019-04-11T08:44:19.737Z,88.00
2019-04-11T08:47:02.641Z,84.20
2019-04-11T08:49:45.975Z,82.90
2019-04-11T08:52:32.859Z,81.80
2019-04-11T08:55:17.258Z,81.50
2019-04-11T08:58:00.423Z,82.60
2019-04-11T09:00:43.502Z,82.20
2019-04-11T09:03:44.112Z,82.80
2019-04-11T09:06:28.928Z,82.20
2019-04-11T09:09:29.456Z,83.80
2019-04-11T09:12:12.769Z,82.00
2019-04-11T09:15:14.612Z,80.30
2019-04-11T09:18:04.298Z,77.80
2019-04-11T09:20:42.071Z,77.70
2019-04-11T09:23:23.839Z,77.10
2019-04-11T09:26:25.659Z,78.70
2019-04-11T09:29:08.246Z,78.40
2019-04-11T09:31:51.769Z,77.40
2019-04-11T09:34:35.689Z,77.20
2019-04-11T09:37:19.223Z,75.30
2019-04-11T09:40:20.477Z,75.50
2019-04-11T09:43:22.196Z,72.90
2019-04-11T09:46:24.116Z,72.80
2019-04-11T09:49:24.847Z,72.60
2019-04-11T09:52:12.151Z,72.10
2019-04-11T09:55:13.258Z,70.00
2019-04-11T09:57:58.562Z,69.80
2019-04-11T10:03:48.616Z,69.10
2019-04-11T10:06:35.114Z,67.60
2019-04-11T10:09:17.104Z,68.80
2019-04-11T10:12:17.971Z,67.60
2019-04-11T10:15:00.269Z,67.70
2019-04-11T10:18:01.029Z,67.50
2019-04-11T10:20:42.639Z,67.20
2019-04-11T10:23:43.164Z,66.00
2019-04-11T10:26:26.207Z,64.60
2019-04-11T10:29:09.555Z,65.80
2019-04-11T10:31:56.851Z,63.80
2019-04-11T10:34:57.961Z,63.30
2019-04-11T10:37:42.102Z,63.30
2019-04-11T10:40:44.021Z,62.60
2019-04-11T10:43:26.551Z,63.20
2019-04-11T10:46:09.630Z,62.80
2019-04-11T10:48:52.894Z,61.80
2019-04-11T10:51:37.927Z,61.80
2019-04-11T10:54:19.743Z,59.70
2019-04-11T10:57:03.463Z,58.20
2019-04-11T10:59:46.972Z,57.00
2019-04-11T11:02:47.871Z,56.40
2019-04-11T11:05:30.998Z,55.70
2019-04-11T11:08:31.418Z,54.80
2019-04-11T11:11:15.674Z,52.80
2019-04-11T11:14:16.388Z,48.10
2019-04-11T11:17:02.427Z,43.10
2019-04-11T11:20:11.950Z,38.40
2019-04-11T11:23:09.081Z,35.20
2019-04-11T11:25:53.347Z,34.20
2019-04-11T11:28:24.392Z,32.10
2019-04-11T11:31:11.838Z,31.10
2019-04-11T11:33:42.971Z,31.90
2019-04-11T11:36:34.872Z,31.30
2019-04-11T11:39:08.882Z,32.20
2019-04-11T11:41:56.754Z,32.40
2019-04-11T11:44:35.020Z,31.80
2019-04-11T11:47:06.852Z,31.50
2019-04-11T11:49:46.767Z,31.40
2019-04-11T11:52:26.981Z,31.10
2019-04-11T11:54:57.814Z,29.90
2019-04-11T11:57:28.898Z,30.60
2019-04-11T12:00:02.996Z,31.30
2019-04-11T12:02:36.990Z,33.00
2019-04-11T12:05:12.723Z,35.50
2019-04-11T12:07:45.107Z,37.00
2019-04-11T12:10:19.569Z,38.80
2019-04-11T12:12:56.540Z,40.90
2019-04-11T12:15:43.789Z,42.00
2019-04-11T12:18:31.145Z,43.20
2019-04-11T12:21:18.569Z,41.90
2019-04-11T12:24:03.823Z,41.50
2019-04-11T12:26:31.259Z,41.60
2019-04-11T12:29:01.645Z,38.50
2019-04-11T12:31:36.416Z,34.40
2019-04-11T12:34:08.346Z,32.60
2019-04-11T12:36:43.086Z,31.20
2019-04-11T12:39:30.451Z,30.00
2019-04-11T12:42:01.569Z,29.90
2019-04-11T12:44:32.647Z,28.70
2019-04-11T12:47:13.536Z,28.60
2019-04-11T12:49:52.804Z,28.10
2019-04-11T12:52:20.522Z,27.70
2019-04-11T12:54:53.689Z,27.60
2019-04-11T12:57:41.312Z,27.30
2019-04-11T13:00:18.557Z,26.20
2019-04-11T13:03:02.143Z,26.00
2019-04-11T13:05:33.861Z,26.90
2019-04-11T13:08:05.160Z,26.90
2019-04-11T13:10:35.893Z,26.40
2019-04-11T13:13:06.974Z,26.30
2019-04-11T13:15:44.048Z,26.90
2019-04-11T13:18:31.486Z,26.50
2019-04-11T13:21:08.671Z,27.40
2019-04-11T13:23:58.378Z,26.30
2019-04-11T13:26:41.793Z,25.70
2019-04-11T13:29:25.663Z,26.10
2019-04-11T13:32:13.652Z,26.70
2019-04-11T13:34:45.252Z,26.30
2019-04-11T13:37:33.172Z,25.70
2019-04-11T13:40:10.588Z,26.10
2019-04-11T13:42:58.489Z,26.70
2019-04-11T13:45:30.087Z,26.70
2019-04-11T13:48:14.074Z,26.20
2019-04-11T13:50:44.029Z,26.60
2019-04-11T13:53:21.401Z,27.30
2019-04-11T13:55:50.796Z,26.10
2019-04-11T13:58:31.391Z,28.20
2019-04-11T14:01:01.516Z,30.20
2019-04-11T14:03:52.195Z,28.80
2019-04-11T14:06:21.662Z,28.10
2019-04-11T14:08:53.326Z,26.80
2019-04-11T14:11:27.984Z,26.20
2019-04-11T14:13:59.679Z,25.70
2019-04-11T14:16:30.037Z,25.40
2019-04-11T14:19:12.394Z,25.50
2019-04-11T14:21:44.325Z,25.10
2019-04-11T14:24:32.328Z,24.90
2019-04-11T14:27:04.047Z,24.80
2019-04-11T14:29:35.984Z,25.00
2019-04-11T14:32:25.821Z,27.00
2019-04-11T14:34:57.419Z,27.20
2019-04-11T14:37:38.079Z,26.70
2019-04-11T14:40:18.792Z,26.00
2019-04-11T14:42:54.967Z,25.40
2019-04-11T14:45:36.684Z,25.20
2019-04-11T14:48:14.022Z,26.00
2019-04-11T14:50:55.277Z,26.10
2019-04-11T14:53:35.933Z,25.40
2019-04-11T14:56:07.591Z,25.60
2019-04-11T14:58:55.514Z,25.60
2019-04-11T15:01:28.170Z,26.20
2019-04-11T15:04:16.560Z,26.70
2019-04-11T15:07:00.247Z,26.00
2019-04-11T15:09:48.319Z,25.30
2019-04-11T15:12:19.896Z,26.20
2019-04-11T15:15:07.874Z,26.10
2019-04-11T15:17:39.561Z,25.50
2019-04-11T15:20:14.959Z,24.60
2019-04-11T15:22:49.062Z,24.60
2019-04-11T15:25:20.753Z,24.70
2019-04-11T15:27:55.280Z,24.60
2019-04-11T15:30:43.353Z,24.80
2019-04-11T15:33:15.344Z,24.50
2019-04-11T15:35:46.937Z,24.80
2019-04-11T15:38:29.687Z,25.20
2019-04-11T15:41:01.590Z,26.00
2019-04-11T15:43:33.529Z,26.50
2019-04-11T15:46:05.346Z,26.00
2019-04-11T15:48:46.199Z,25.70
2019-04-11T15:51:26.816Z,25.10
2019-04-11T15:53:58.478Z,25.90
2019-04-11T15:56:42.338Z,25.50
2019-04-11T15:59:14.009Z,26.00
2019-04-11T16:02:03.807Z,26.20
2019-04-11T16:04:35.639Z,26.20
2019-04-11T16:07:13.234Z,26.20
2019-04-11T16:09:44.805Z,25.90
2019-04-11T16:12:19.496Z,25.90
2019-04-11T16:14:51.280Z,26.00
2019-04-11T16:17:25.830Z,26.40
2019-04-11T16:19:56.823Z,27.40
2019-04-11T16:22:34.512Z,27.80
2019-04-11T16:25:10.907Z,27.30
2019-04-11T16:28:00.310Z,27.20
2019-04-11T16:30:32.160Z,27.70
2019-04-11T16:33:06.445Z,28.00
2019-04-11T16:35:43.736Z,27.60
2019-04-11T16:38:19.133Z,27.70
2019-04-11T16:41:02.722Z,28.20
2019-04-11T16:43:32.685Z,28.00
2019-04-11T16:46:20.188Z,27.90
2019-04-11T16:48:49.559Z,27.80
2019-04-11T16:51:30.346Z,27.60
2019-04-11T16:53:50.610Z,27.90
2019-04-11T16:56:19.914Z,28.00
2019-04-11T16:58:50.303Z,28.20
2019-04-11T17:01:20.762Z,28.80
2019-04-11T17:03:54.824Z,30.40
2019-04-11T17:06:26.799Z,32.40
2019-04-11T17:09:00.520Z,34.60
2019-04-11T17:11:29.867Z,37.40
2019-04-11T17:13:59.272Z,39.20
2019-04-11T17:16:30.716Z,40.00
2019-04-11T17:19:00.377Z,41.30
2019-04-11T17:21:29.806Z,42.70
2019-04-11T17:23:59.179Z,43.80
2019-04-11T17:26:28.556Z,44.80
2019-04-11T17:29:17.284Z,45.30
2019-04-11T17:31:58.615Z,45.30
2019-04-11T17:34:40.657Z,46.10
2019-04-11T17:37:22.863Z,46.60
2019-04-11T17:40:06.596Z,46.70
2019-04-11T17:42:47.606Z,47.30
2019-04-11T17:45:16.993Z,47.80
2019-04-11T17:48:05.701Z,48.40
2019-04-11T17:50:48.631Z,49.40
2019-04-11T17:53:29.790Z,49.30
2019-04-11T17:56:11.151Z,48.90
2019-04-11T17:58:52.512Z,49.20
2019-04-11T18:01:22.129Z,49.30
2019-04-11T18:04:13.223Z,49.40
2019-04-11T18:07:16.990Z,50.30
2019-04-11T18:09:56.727Z,51.20
2019-04-11T18:12:38.765Z,51.50
2019-04-11T18:15:20.915Z,52.00
2019-04-11T18:18:03.224Z,52.30
2019-04-11T18:20:46.660Z,52.40
2019-04-11T18:23:27.915Z,52.50
2019-04-11T18:26:09.692Z,52.80
2019-04-11T18:28:52.515Z,53.00
2019-04-11T18:31:34.530Z,53.10
2019-04-11T18:34:16.565Z,54.20
2019-04-11T18:36:46.132Z,53.70
2019-04-11T18:39:36.071Z,53.90
2019-04-11T18:42:37.189Z,54.10
2019-04-11T18:45:18.373Z,54.20
2019-04-11T18:48:00.397Z,54.30
2019-04-11T18:50:41.812Z,54.80
2019-04-11T18:53:23.152Z,55.00
2019-04-11T18:56:04.807Z,54.80
2019-04-11T18:58:46.051Z,54.90
2019-04-11T19:01:39.247Z,55.20
2019-04-11T19:04:49.316Z,55.30
2019-04-11T19:07:30.918Z,55.40
2019-04-11T19:10:15.037Z,55.60
2019-04-11T19:12:55.972Z,56.00
2019-04-11T19:15:37.945Z,56.30
2019-04-11T19:18:19.718Z,56.60
2019-04-11T19:21:00.881Z,56.90
2019-04-11T19:23:45.120Z,56.80
2019-04-11T19:26:26.474Z,56.80
2019-04-11T19:29:08.645Z,56.90
2019-04-11T19:31:49.804Z,57.30
2019-04-11T19:34:31.875Z,59.30
2019-04-11T19:37:13.841Z,60.50
2019-04-11T19:39:55.856Z,61.40
2019-04-11T19:42:37.766Z,62.20
2019-04-11T19:45:19.495Z,62.00
2019-04-11T19:48:01.827Z,61.50
2019-04-11T19:50:43.810Z,61.80
2019-04-11T19:53:25.863Z,60.90
2019-04-11T19:56:12.412Z,60.30
2019-04-11T19:58:54.036Z,61.00
2019-04-11T20:01:36.224Z,61.60
2019-04-11T20:04:18.419Z,62.30
2019-04-11T20:07:00.337Z,62.70
2019-04-11T20:09:42.295Z,62.20
2019-04-11T20:12:23.984Z,63.20
2019-04-11T20:15:08.502Z,63.20
2019-04-11T20:17:51.933Z,62.00
2019-04-11T20:20:31.668Z,61.80
2019-04-11T20:23:13.630Z,62.30
2019-04-11T20:28:54.010Z,61.30
2019-04-11T20:31:35.241Z,62.50
2019-04-11T20:34:26.821Z,63.30
2019-04-11T20:37:00.362Z,64.10
2019-04-11T20:39:46.382Z,64.90
2019-04-11T20:42:25.407Z,65.80
2019-04-11T20:45:07.562Z,67.40
2019-04-11T20:50:29.750Z,67.60
2019-04-11T20:53:12.904Z,67.90
2019-04-11T20:55:54.672Z,68.60
2019-04-11T20:58:36.297Z,69.10
2019-04-11T21:01:18.495Z,69.90
2019-04-11T21:04:03.065Z,70.90
2019-04-11T21:06:43.135Z,71.60
2019-04-11T21:09:25.099Z,72.20
2019-04-11T21:12:07.494Z,72.60
2019-04-11T21:17:31.471Z,74.00
2019-04-11T21:20:13.514Z,75.70
2019-04-11T21:22:55.101Z,75.90
2019-04-11T21:25:37.105Z,76.30
2019-04-11T21:28:18.324Z,78.10
2019-04-11T21:31:00.789Z,79.90
2019-04-11T21:33:42.317Z,79.80
2019-04-11T21:36:26.803Z,80.10
2019-04-11T21:39:07.737Z,81.40
2019-04-11T21:41:49.759Z,84.10
2019-04-11T21:44:35.942Z,83.70
2019-04-11T21:47:14.366Z,84.40
2019-04-11T21:49:56.064Z,84.50
2019-04-11T21:52:38.095Z,86.30
2019-04-11T21:55:19.974Z,87.00
2019-04-11T21:58:01.731Z,88.40
2019-04-11T22:00:44.277Z,87.90
2019-04-11T22:03:26.158Z,89.30
2019-04-11T22:06:08.117Z,90.50
2019-04-11T22:08:50.158Z,90.40
2019-04-11T22:11:31.324Z,90.50
2019-04-11T22:14:13.301Z,91.00
2019-04-11T22:16:55.214Z,91.10
2019-04-11T22:19:36.565Z,91.10
2019-04-11T22:22:18.021Z,91.70
2019-04-11T22:24:59.750Z,91.60
2019-04-11T22:27:41.414Z,92.40
2019-04-11T22:30:25.084Z,92.70
2019-04-11T22:33:10.014Z,93.10
2019-04-11T22:35:52.006Z,92.60
2019-04-11T22:38:34.064Z,93.70
2019-04-11T22:41:15.874Z,94.90
2019-04-11T22:43:45.305Z,95.20
2019-04-11T22:50:01.253Z,95.00
2019-04-11T22:52:42.846Z,95.40
2019-04-11T22:55:12.259Z,95.10
2019-04-11T22:58:00.962Z,95.30
2019-04-11T23:00:45.227Z,95.50
2019-04-11T23:03:47.141Z,95.50
2019-04-11T23:06:28.734Z,95.50
2019-04-11T23:09:10.696Z,95.70
2019-04-11T23:11:51.937Z,95.90
2019-04-11T23:14:33.108Z,96.80
2019-04-11T23:17:15.332Z,96.70
2019-04-11T23:19:57.211Z,97.30
2019-04-11T23:22:40.051Z,96.90
2019-04-11T23:25:21.557Z,97.10
2019-04-11T23:28:03.540Z,97.50
2019-04-11T23:30:49.554Z,97.00
2019-04-11T23:33:27.667Z,97.50
2019-04-11T23:36:09.652Z,97.50
2019-04-11T23:38:52.730Z,97.50
2019-04-11T23:41:33.756Z,97.20
2019-04-11T23:44:18.041Z,96.70
2019-04-11T23:46:58.736Z,97.50
2019-04-11T23:49:40.733Z,96.70
2019-04-11T23:52:26.345Z,96.60
2019-04-11T23:55:06.285Z,96.80
2019-04-11T23:57:48.263Z,96.80
